sensor_id;sensor_type;location;lat;lon;timestamp;temperature;humidity
17726;DHT22;8983;53.156;17.960;2022-11-20T00:00:54;-0.80;99.90
17726;DHT22;8983;53.156;17.960;2022-11-20T00:03:23;-0.80;99.90
17726;DHT22;8983;53.156;17.960;2022-11-20T00:05:50;-0.80;99.90
17726;DHT22;8983;53.156;17.960;2022-11-20T00:08:18;-0.80;99.90
17726;DHT22;8983;53.156;17.960;2022-11-20T00:10:47;-0.80;99.90
17726;DHT22;8983;53.156;17.960;2022-11-20T00:13:14;-0.80;99.90
17726;DHT22;8983;53.156;17.960;2022-11-20T00:15:44;-0.80;99.90
17726;DHT22;8983;53.156;17.960;2022-11-20T00:18:12;-0.70;99.90
17726;DHT22;8983;53.156;17.960;2022-11-20T00:20:40;-0.80;99.90
17726;DHT22;8983;53.156;17.960;2022-11-20T00:23:08;-0.70;99.90
17726;DHT22;8983;53.156;17.960;2022-11-20T00:25:35;-0.70;99.90
17726;DHT22;8983;53.156;17.960;2022-11-20T00:28:03;-0.70;99.90
17726;DHT22;8983;53.156;17.960;2022-11-20T00:30:31;-0.70;99.90
17726;DHT22;8983;53.156;17.960;2022-11-20T00:33:01;-0.70;99.90
17726;DHT22;8983;53.156;17.960;2022-11-20T00:35:28;-0.70;99.90
17726;DHT22;8983;53.156;17.960;2022-11-20T00:37:57;-0.70;99.90
17726;DHT22;8983;53.156;17.960;2022-11-20T00:40:25;-0.70;99.90
17726;DHT22;8983;53.156;17.960;2022-11-20T00:42:53;-0.70;99.90
17726;DHT22;8983;53.156;17.960;2022-11-20T00:45:21;-0.70;99.90
17726;DHT22;8983;53.156;17.960;2022-11-20T00:47:48;-0.70;99.90
17726;DHT22;8983;53.156;17.960;2022-11-20T00:50:18;-0.80;99.90
17726;DHT22;8983;53.156;17.960;2022-11-20T00:52:46;-0.80;99.90
17726;DHT22;8983;53.156;17.960;2022-11-20T00:55:14;-0.80;99.90
17726;DHT22;8983;53.156;17.960;2022-11-20T00:57:41;-0.80;99.90
17726;DHT22;8983;53.156;17.960;2022-11-20T01:00:10;-0.80;99.90
17726;DHT22;8983;53.156;17.960;2022-11-20T01:02:38;-0.80;99.90
17726;DHT22;8983;53.156;17.960;2022-11-20T01:05:06;-0.80;99.90
17726;DHT22;8983;53.156;17.960;2022-11-20T01:07:35;-0.80;99.90
17726;DHT22;8983;53.156;17.960;2022-11-20T01:10:04;-0.80;99.90
17726;DHT22;8983;53.156;17.960;2022-11-20T01:12:32;-0.80;99.90
17726;DHT22;8983;53.156;17.960;2022-11-20T01:15:00;-0.80;99.90
17726;DHT22;8983;53.156;17.960;2022-11-20T01:17:28;-0.80;99.90
17726;DHT22;8983;53.156;17.960;2022-11-20T01:19:56;-0.80;99.90
17726;DHT22;8983;53.156;17.960;2022-11-20T01:22:24;-0.80;99.90
17726;DHT22;8983;53.156;17.960;2022-11-20T01:24:53;-0.80;99.90
17726;DHT22;8983;53.156;17.960;2022-11-20T01:27:21;-0.80;99.90
17726;DHT22;8983;53.156;17.960;2022-11-20T01:29:49;-0.80;99.90
17726;DHT22;8983;53.156;17.960;2022-11-20T01:32:17;-0.80;99.90
17726;DHT22;8983;53.156;17.960;2022-11-20T01:34:45;-0.80;99.90
17726;DHT22;8983;53.156;17.960;2022-11-20T01:37:12;-0.70;99.90
17726;DHT22;8983;53.156;17.960;2022-11-20T01:39:40;-0.80;99.90
17726;DHT22;8983;53.156;17.960;2022-11-20T01:42:10;-0.70;99.90
17726;DHT22;8983;53.156;17.960;2022-11-20T01:44:54;-0.70;99.90
17726;DHT22;8983;53.156;17.960;2022-11-20T01:47:29;-0.70;99.90
17726;DHT22;8983;53.156;17.960;2022-11-20T01:50:01;-0.70;99.90
17726;DHT22;8983;53.156;17.960;2022-11-20T01:52:33;-0.70;99.90
17726;DHT22;8983;53.156;17.960;2022-11-20T01:55:05;-0.70;99.90
17726;DHT22;8983;53.156;17.960;2022-11-20T01:57:35;-0.70;99.90
17726;DHT22;8983;53.156;17.960;2022-11-20T02:00:06;-0.70;99.90
17726;DHT22;8983;53.156;17.960;2022-11-20T02:02:36;-0.70;99.90
17726;DHT22;8983;53.156;17.960;2022-11-20T02:05:14;-0.70;99.90
17726;DHT22;8983;53.156;17.960;2022-11-20T02:07:44;-0.70;99.90
17726;DHT22;8983;53.156;17.960;2022-11-20T02:10:13;-0.70;99.90
17726;DHT22;8983;53.156;17.960;2022-11-20T02:12:43;-0.70;99.90
17726;DHT22;8983;53.156;17.960;2022-11-20T02:15:28;-0.70;99.90
17726;DHT22;8983;53.156;17.960;2022-11-20T02:17:56;-0.70;99.90
17726;DHT22;8983;53.156;17.960;2022-11-20T02:20:24;-0.70;99.90
17726;DHT22;8983;53.156;17.960;2022-11-20T02:22:57;-0.70;99.90
17726;DHT22;8983;53.156;17.960;2022-11-20T02:25:28;-0.70;99.90
17726;DHT22;8983;53.156;17.960;2022-11-20T02:27:56;-0.70;99.90
17726;DHT22;8983;53.156;17.960;2022-11-20T02:30:24;-0.70;99.90
17726;DHT22;8983;53.156;17.960;2022-11-20T02:32:52;-0.70;99.90
17726;DHT22;8983;53.156;17.960;2022-11-20T02:35:44;-0.70;99.90
17726;DHT22;8983;53.156;17.960;2022-11-20T02:38:13;-0.70;99.90
17726;DHT22;8983;53.156;17.960;2022-11-20T02:40:43;-0.70;99.90
17726;DHT22;8983;53.156;17.960;2022-11-20T02:43:11;-0.70;99.90
17726;DHT22;8983;53.156;17.960;2022-11-20T02:45:39;-0.70;99.90
17726;DHT22;8983;53.156;17.960;2022-11-20T02:48:07;-0.70;99.90
17726;DHT22;8983;53.156;17.960;2022-11-20T02:50:37;-0.70;99.90
17726;DHT22;8983;53.156;17.960;2022-11-20T02:53:06;-0.70;99.90
17726;DHT22;8983;53.156;17.960;2022-11-20T02:55:34;-0.70;99.90
17726;DHT22;8983;53.156;17.960;2022-11-20T02:58:04;-0.60;99.90
17726;DHT22;8983;53.156;17.960;2022-11-20T03:00:32;-0.60;99.90
17726;DHT22;8983;53.156;17.960;2022-11-20T03:03:00;-0.70;99.90
17726;DHT22;8983;53.156;17.960;2022-11-20T03:05:28;-0.70;99.90
17726;DHT22;8983;53.156;17.960;2022-11-20T03:07:56;-0.70;99.90
17726;DHT22;8983;53.156;17.960;2022-11-20T03:10:23;-0.70;99.90
17726;DHT22;8983;53.156;17.960;2022-11-20T03:12:53;-0.60;99.90
17726;DHT22;8983;53.156;17.960;2022-11-20T03:15:23;-0.60;99.90
17726;DHT22;8983;53.156;17.960;2022-11-20T03:17:53;-0.60;99.90
17726;DHT22;8983;53.156;17.960;2022-11-20T03:20:22;-0.60;99.90
17726;DHT22;8983;53.156;17.960;2022-11-20T03:22:50;-0.60;99.90
17726;DHT22;8983;53.156;17.960;2022-11-20T03:25:18;-0.60;99.90
17726;DHT22;8983;53.156;17.960;2022-11-20T03:27:46;-0.60;99.90
17726;DHT22;8983;53.156;17.960;2022-11-20T03:30:14;-0.60;99.90
17726;DHT22;8983;53.156;17.960;2022-11-20T03:32:43;-0.60;99.90
17726;DHT22;8983;53.156;17.960;2022-11-20T03:35:11;-0.60;99.90
17726;DHT22;8983;53.156;17.960;2022-11-20T03:37:39;-0.60;99.90
17726;DHT22;8983;53.156;17.960;2022-11-20T03:40:08;-0.60;99.90
17726;DHT22;8983;53.156;17.960;2022-11-20T03:42:36;-0.60;99.90
17726;DHT22;8983;53.156;17.960;2022-11-20T03:45:13;-0.70;99.90
17726;DHT22;8983;53.156;17.960;2022-11-20T03:47:43;-0.60;99.90
17726;DHT22;8983;53.156;17.960;2022-11-20T03:50:12;-0.60;99.90
17726;DHT22;8983;53.156;17.960;2022-11-20T03:52:41;-0.60;99.90
17726;DHT22;8983;53.156;17.960;2022-11-20T03:55:09;-0.60;99.90
17726;DHT22;8983;53.156;17.960;2022-11-20T03:57:37;-0.70;99.90
17726;DHT22;8983;53.156;17.960;2022-11-20T04:00:06;-0.70;99.90
17726;DHT22;8983;53.156;17.960;2022-11-20T04:02:34;-0.70;99.90
17726;DHT22;8983;53.156;17.960;2022-11-20T04:05:04;-0.70;99.90
17726;DHT22;8983;53.156;17.960;2022-11-20T04:07:34;-0.70;99.90
17726;DHT22;8983;53.156;17.960;2022-11-20T04:10:02;-0.70;99.90
17726;DHT22;8983;53.156;17.960;2022-11-20T04:12:32;-0.70;99.90
17726;DHT22;8983;53.156;17.960;2022-11-20T04:15:01;-0.70;99.90
17726;DHT22;8983;53.156;17.960;2022-11-20T04:17:28;-0.70;99.90
17726;DHT22;8983;53.156;17.960;2022-11-20T04:19:56;-0.70;99.90
17726;DHT22;8983;53.156;17.960;2022-11-20T04:22:26;-0.70;99.90
17726;DHT22;8983;53.156;17.960;2022-11-20T04:24:54;-0.70;99.90
17726;DHT22;8983;53.156;17.960;2022-11-20T04:27:22;-0.70;99.90
17726;DHT22;8983;53.156;17.960;2022-11-20T04:29:50;-0.70;99.90
17726;DHT22;8983;53.156;17.960;2022-11-20T04:32:17;-0.70;99.90
17726;DHT22;8983;53.156;17.960;2022-11-20T04:34:45;-0.70;99.90
17726;DHT22;8983;53.156;17.960;2022-11-20T04:37:13;-0.80;99.90
17726;DHT22;8983;53.156;17.960;2022-11-20T04:39:43;-0.70;99.90
17726;DHT22;8983;53.156;17.960;2022-11-20T04:42:11;-0.70;99.90
17726;DHT22;8983;53.156;17.960;2022-11-20T04:44:57;-0.70;99.90
17726;DHT22;8983;53.156;17.960;2022-11-20T04:47:25;-0.70;99.90
17726;DHT22;8983;53.156;17.960;2022-11-20T04:49:53;-0.70;99.90
17726;DHT22;8983;53.156;17.960;2022-11-20T04:52:21;-0.70;99.90
17726;DHT22;8983;53.156;17.960;2022-11-20T04:54:50;-0.70;99.90
17726;DHT22;8983;53.156;17.960;2022-11-20T04:57:20;-0.70;99.90
17726;DHT22;8983;53.156;17.960;2022-11-20T04:59:48;-0.70;99.90
17726;DHT22;8983;53.156;17.960;2022-11-20T05:02:17;-0.70;99.90
17726;DHT22;8983;53.156;17.960;2022-11-20T05:04:45;-0.70;99.90
17726;DHT22;8983;53.156;17.960;2022-11-20T05:07:12;-0.70;99.90
17726;DHT22;8983;53.156;17.960;2022-11-20T05:09:40;-0.70;99.90
17726;DHT22;8983;53.156;17.960;2022-11-20T05:12:10;-0.70;99.90
17726;DHT22;8983;53.156;17.960;2022-11-20T05:14:38;-0.70;99.90
17726;DHT22;8983;53.156;17.960;2022-11-20T05:17:09;-0.70;99.90
17726;DHT22;8983;53.156;17.960;2022-11-20T05:19:37;-0.70;99.90
17726;DHT22;8983;53.156;17.960;2022-11-20T05:22:05;-0.70;99.90
17726;DHT22;8983;53.156;17.960;2022-11-20T05:24:32;-0.70;99.90
17726;DHT22;8983;53.156;17.960;2022-11-20T05:27:01;-0.70;99.90
17726;DHT22;8983;53.156;17.960;2022-11-20T05:29:30;-0.70;99.90
17726;DHT22;8983;53.156;17.960;2022-11-20T05:31:58;-0.80;99.90
17726;DHT22;8983;53.156;17.960;2022-11-20T05:34:26;-0.70;99.90
17726;DHT22;8983;53.156;17.960;2022-11-20T05:36:54;-0.80;99.90
17726;DHT22;8983;53.156;17.960;2022-11-20T05:39:22;-0.70;99.90
17726;DHT22;8983;53.156;17.960;2022-11-20T05:41:50;-0.70;99.90
17726;DHT22;8983;53.156;17.960;2022-11-20T05:44:39;-0.70;99.90
17726;DHT22;8983;53.156;17.960;2022-11-20T05:47:07;-0.70;99.90
17726;DHT22;8983;53.156;17.960;2022-11-20T05:49:35;-0.70;99.90
17726;DHT22;8983;53.156;17.960;2022-11-20T05:52:03;-0.70;99.90
17726;DHT22;8983;53.156;17.960;2022-11-20T05:54:31;-0.70;99.90
17726;DHT22;8983;53.156;17.960;2022-11-20T05:56:59;-0.70;99.90
17726;DHT22;8983;53.156;17.960;2022-11-20T05:59:27;-0.70;99.90
17726;DHT22;8983;53.156;17.960;2022-11-20T06:01:57;-0.70;99.90
17726;DHT22;8983;53.156;17.960;2022-11-20T06:04:25;-0.70;99.90
17726;DHT22;8983;53.156;17.960;2022-11-20T06:06:53;-0.80;99.90
17726;DHT22;8983;53.156;17.960;2022-11-20T06:09:21;-0.70;99.90
17726;DHT22;8983;53.156;17.960;2022-11-20T06:11:49;-0.70;99.90
17726;DHT22;8983;53.156;17.960;2022-11-20T06:14:17;-0.80;99.90
17726;DHT22;8983;53.156;17.960;2022-11-20T06:16:45;-0.80;99.90
17726;DHT22;8983;53.156;17.960;2022-11-20T06:19:14;-0.80;99.90
17726;DHT22;8983;53.156;17.960;2022-11-20T06:21:42;-0.80;99.90
17726;DHT22;8983;53.156;17.960;2022-11-20T06:24:10;-0.80;99.90
17726;DHT22;8983;53.156;17.960;2022-11-20T06:26:38;-0.80;99.90
17726;DHT22;8983;53.156;17.960;2022-11-20T06:29:07;-0.80;99.90
17726;DHT22;8983;53.156;17.960;2022-11-20T06:31:35;-0.80;99.90
17726;DHT22;8983;53.156;17.960;2022-11-20T06:34:04;-0.80;99.90
17726;DHT22;8983;53.156;17.960;2022-11-20T06:36:34;-0.80;99.90
17726;DHT22;8983;53.156;17.960;2022-11-20T06:39:03;-0.80;99.90
17726;DHT22;8983;53.156;17.960;2022-11-20T06:41:31;-0.70;99.90
17726;DHT22;8983;53.156;17.960;2022-11-20T06:43:59;-0.70;99.90
17726;DHT22;8983;53.156;17.960;2022-11-20T06:46:27;-0.70;99.90
17726;DHT22;8983;53.156;17.960;2022-11-20T06:48:55;-0.70;99.90
17726;DHT22;8983;53.156;17.960;2022-11-20T06:51:24;-0.70;99.90
17726;DHT22;8983;53.156;17.960;2022-11-20T06:53:54;-0.70;99.90
17726;DHT22;8983;53.156;17.960;2022-11-20T06:56:22;-0.70;99.90
17726;DHT22;8983;53.156;17.960;2022-11-20T06:58:50;-0.70;99.90
17726;DHT22;8983;53.156;17.960;2022-11-20T07:01:18;-0.70;99.90
17726;DHT22;8983;53.156;17.960;2022-11-20T07:03:48;-0.70;99.90
17726;DHT22;8983;53.156;17.960;2022-11-20T07:06:20;-0.70;99.90
17726;DHT22;8983;53.156;17.960;2022-11-20T07:08:50;-0.70;99.90
17726;DHT22;8983;53.156;17.960;2022-11-20T07:11:19;-0.70;99.90
17726;DHT22;8983;53.156;17.960;2022-11-20T07:13:47;-0.70;99.90
17726;DHT22;8983;53.156;17.960;2022-11-20T07:16:15;-0.70;99.90
17726;DHT22;8983;53.156;17.960;2022-11-20T07:18:43;-0.70;99.90
17726;DHT22;8983;53.156;17.960;2022-11-20T07:21:16;-0.70;99.90
17726;DHT22;8983;53.156;17.960;2022-11-20T07:23:44;-0.70;99.90
17726;DHT22;8983;53.156;17.960;2022-11-20T07:26:12;-0.70;99.90
17726;DHT22;8983;53.156;17.960;2022-11-20T07:28:43;-0.70;99.90
17726;DHT22;8983;53.156;17.960;2022-11-20T07:31:11;-0.70;99.90
17726;DHT22;8983;53.156;17.960;2022-11-20T07:33:44;-0.60;99.90
17726;DHT22;8983;53.156;17.960;2022-11-20T07:36:12;-0.60;99.90
17726;DHT22;8983;53.156;17.960;2022-11-20T07:38:40;-0.60;99.90
17726;DHT22;8983;53.156;17.960;2022-11-20T07:41:08;-0.60;99.90
17726;DHT22;8983;53.156;17.960;2022-11-20T07:43:36;-0.60;99.90
17726;DHT22;8983;53.156;17.960;2022-11-20T07:46:08;-0.60;99.90
17726;DHT22;8983;53.156;17.960;2022-11-20T07:48:36;-0.60;99.90
17726;DHT22;8983;53.156;17.960;2022-11-20T07:51:04;-0.50;99.90
17726;DHT22;8983;53.156;17.960;2022-11-20T07:53:33;-0.50;99.90
17726;DHT22;8983;53.156;17.960;2022-11-20T07:56:01;-0.60;99.90
17726;DHT22;8983;53.156;17.960;2022-11-20T07:58:29;-0.60;99.90
17726;DHT22;8983;53.156;17.960;2022-11-20T08:01:02;-0.50;99.90
17726;DHT22;8983;53.156;17.960;2022-11-20T08:03:32;-0.50;99.90
17726;DHT22;8983;53.156;17.960;2022-11-20T08:06:00;-0.50;99.90
17726;DHT22;8983;53.156;17.960;2022-11-20T08:08:29;-0.50;99.90
17726;DHT22;8983;53.156;17.960;2022-11-20T08:11:00;-0.50;99.90
17726;DHT22;8983;53.156;17.960;2022-11-20T08:13:42;-0.50;99.90
17726;DHT22;8983;53.156;17.960;2022-11-20T08:16:27;-0.50;99.90
17726;DHT22;8983;53.156;17.960;2022-11-20T08:18:56;-0.50;99.90
17726;DHT22;8983;53.156;17.960;2022-11-20T08:21:24;-0.50;99.90
17726;DHT22;8983;53.156;17.960;2022-11-20T08:23:52;-0.40;99.90
17726;DHT22;8983;53.156;17.960;2022-11-20T08:26:21;-0.40;99.90
17726;DHT22;8983;53.156;17.960;2022-11-20T08:28:49;-0.40;99.90
17726;DHT22;8983;53.156;17.960;2022-11-20T08:31:17;-0.40;99.90
17726;DHT22;8983;53.156;17.960;2022-11-20T08:33:44;-0.30;99.90
17726;DHT22;8983;53.156;17.960;2022-11-20T08:36:14;-0.30;99.90
17726;DHT22;8983;53.156;17.960;2022-11-20T08:38:42;-0.30;99.90
17726;DHT22;8983;53.156;17.960;2022-11-20T08:41:14;-0.30;99.90
17726;DHT22;8983;53.156;17.960;2022-11-20T08:43:56;-0.30;99.90
17726;DHT22;8983;53.156;17.960;2022-11-20T08:46:25;-0.30;99.90
17726;DHT22;8983;53.156;17.960;2022-11-20T08:48:53;-0.30;99.90
17726;DHT22;8983;53.156;17.960;2022-11-20T08:51:22;-0.30;99.90
17726;DHT22;8983;53.156;17.960;2022-11-20T08:53:50;-0.30;99.90
17726;DHT22;8983;53.156;17.960;2022-11-20T08:56:18;-0.30;99.90
17726;DHT22;8983;53.156;17.960;2022-11-20T08:58:46;-0.30;99.90
17726;DHT22;8983;53.156;17.960;2022-11-20T09:01:34;-0.30;99.90
17726;DHT22;8983;53.156;17.960;2022-11-20T09:04:02;-0.20;99.90
17726;DHT22;8983;53.156;17.960;2022-11-20T09:06:32;-0.20;99.90
17726;DHT22;8983;53.156;17.960;2022-11-20T09:09:00;-0.20;99.90
17726;DHT22;8983;53.156;17.960;2022-11-20T09:11:32;-0.20;99.90
17726;DHT22;8983;53.156;17.960;2022-11-20T09:14:01;-0.20;99.90
17726;DHT22;8983;53.156;17.960;2022-11-20T09:16:31;-0.20;99.90
17726;DHT22;8983;53.156;17.960;2022-11-20T09:18:59;-0.20;99.90
17726;DHT22;8983;53.156;17.960;2022-11-20T09:21:48;-0.20;99.90
17726;DHT22;8983;53.156;17.960;2022-11-20T09:24:16;-0.30;99.90
17726;DHT22;8983;53.156;17.960;2022-11-20T09:26:44;-0.20;99.90
17726;DHT22;8983;53.156;17.960;2022-11-20T09:29:12;-0.20;99.90
17726;DHT22;8983;53.156;17.960;2022-11-20T09:31:40;-0.20;99.90
17726;DHT22;8983;53.156;17.960;2022-11-20T09:34:08;-0.20;99.90
17726;DHT22;8983;53.156;17.960;2022-11-20T09:36:38;-0.20;99.90
17726;DHT22;8983;53.156;17.960;2022-11-20T09:39:08;-0.20;99.90
17726;DHT22;8983;53.156;17.960;2022-11-20T09:41:51;-0.20;99.90
17726;DHT22;8983;53.156;17.960;2022-11-20T09:44:34;-0.20;99.90
17726;DHT22;8983;53.156;17.960;2022-11-20T09:47:12;-0.20;99.90
17726;DHT22;8983;53.156;17.960;2022-11-20T09:49:57;-0.20;99.90
17726;DHT22;8983;53.156;17.960;2022-11-20T09:52:33;-0.20;99.90
17726;DHT22;8983;53.156;17.960;2022-11-20T09:55:08;-0.20;99.90
17726;DHT22;8983;53.156;17.960;2022-11-20T09:57:39;-0.20;99.90
17726;DHT22;8983;53.156;17.960;2022-11-20T10:00:11;-0.20;99.90
17726;DHT22;8983;53.156;17.960;2022-11-20T10:02:44;-0.20;99.90
17726;DHT22;8983;53.156;17.960;2022-11-20T10:05:18;-0.20;99.90
17726;DHT22;8983;53.156;17.960;2022-11-20T10:07:52;-0.20;99.90
17726;DHT22;8983;53.156;17.960;2022-11-20T10:10:31;-0.20;99.90
17726;DHT22;8983;53.156;17.960;2022-11-20T10:13:20;-0.20;99.90
17726;DHT22;8983;53.156;17.960;2022-11-20T10:15:57;-0.30;99.90
17726;DHT22;8983;53.156;17.960;2022-11-20T10:18:40;-0.30;99.90
17726;DHT22;8983;53.156;17.960;2022-11-20T10:21:16;-0.20;99.90
17726;DHT22;8983;53.156;17.960;2022-11-20T10:24:05;-0.20;99.90
17726;DHT22;8983;53.156;17.960;2022-11-20T10:26:44;-0.30;99.90
17726;DHT22;8983;53.156;17.960;2022-11-20T10:29:13;-0.20;99.90
17726;DHT22;8983;53.156;17.960;2022-11-20T10:31:44;-0.30;99.90
17726;DHT22;8983;53.156;17.960;2022-11-20T10:34:19;-0.20;99.90
17726;DHT22;8983;53.156;17.960;2022-11-20T10:36:54;-0.30;99.90
17726;DHT22;8983;53.156;17.960;2022-11-20T10:39:28;-0.30;99.90
17726;DHT22;8983;53.156;17.960;2022-11-20T10:41:59;-0.30;99.90
17726;DHT22;8983;53.156;17.960;2022-11-20T10:44:29;-0.20;99.90
17726;DHT22;8983;53.156;17.960;2022-11-20T10:47:22;-0.30;99.90
17726;DHT22;8983;53.156;17.960;2022-11-20T10:49:52;-0.20;99.90
17726;DHT22;8983;53.156;17.960;2022-11-20T10:52:27;-0.20;99.90
17726;DHT22;8983;53.156;17.960;2022-11-20T10:55:06;-0.20;99.90
17726;DHT22;8983;53.156;17.960;2022-11-20T10:57:51;-0.20;99.90
17726;DHT22;8983;53.156;17.960;2022-11-20T11:00:20;-0.10;99.90
17726;DHT22;8983;53.156;17.960;2022-11-20T11:02:50;-0.10;99.90
17726;DHT22;8983;53.156;17.960;2022-11-20T11:05:25;-0.20;99.90
17726;DHT22;8983;53.156;17.960;2022-11-20T11:07:56;-0.20;99.90
17726;DHT22;8983;53.156;17.960;2022-11-20T11:10:30;-0.20;99.90
17726;DHT22;8983;53.156;17.960;2022-11-20T11:13:00;-0.20;99.90
17726;DHT22;8983;53.156;17.960;2022-11-20T11:15:30;-0.10;99.90
17726;DHT22;8983;53.156;17.960;2022-11-20T11:18:03;-0.10;99.90
17726;DHT22;8983;53.156;17.960;2022-11-20T11:20:31;-0.10;99.90
17726;DHT22;8983;53.156;17.960;2022-11-20T11:23:00;-0.10;99.90
17726;DHT22;8983;53.156;17.960;2022-11-20T11:25:30;-0.10;99.90
17726;DHT22;8983;53.156;17.960;2022-11-20T11:28:04;-0.20;99.90
17726;DHT22;8983;53.156;17.960;2022-11-20T11:30:41;-0.20;99.90
17726;DHT22;8983;53.156;17.960;2022-11-20T11:33:11;-0.20;99.90
17726;DHT22;8983;53.156;17.960;2022-11-20T11:35:45;-0.20;99.90
17726;DHT22;8983;53.156;17.960;2022-11-20T11:38:21;-0.20;99.90
17726;DHT22;8983;53.156;17.960;2022-11-20T11:40:49;-0.20;99.90
17726;DHT22;8983;53.156;17.960;2022-11-20T11:43:24;-0.20;99.90
17726;DHT22;8983;53.156;17.960;2022-11-20T11:46:25;-0.20;99.90
17726;DHT22;8983;53.156;17.960;2022-11-20T11:48:56;-0.20;99.90
17726;DHT22;8983;53.156;17.960;2022-11-20T11:51:28;-0.20;99.90
17726;DHT22;8983;53.156;17.960;2022-11-20T11:53:58;-0.20;99.90
17726;DHT22;8983;53.156;17.960;2022-11-20T11:56:28;-0.30;99.90
17726;DHT22;8983;53.156;17.960;2022-11-20T11:59:03;-0.30;99.90
17726;DHT22;8983;53.156;17.960;2022-11-20T12:01:37;-0.30;99.90
17726;DHT22;8983;53.156;17.960;2022-11-20T12:04:16;-0.30;99.90
17726;DHT22;8983;53.156;17.960;2022-11-20T12:06:51;-0.30;99.90
17726;DHT22;8983;53.156;17.960;2022-11-20T12:09:24;-0.30;99.90
17726;DHT22;8983;53.156;17.960;2022-11-20T12:11:58;-0.30;99.90
17726;DHT22;8983;53.156;17.960;2022-11-20T12:14:34;-0.30;99.90
17726;DHT22;8983;53.156;17.960;2022-11-20T12:17:04;-0.30;99.90
17726;DHT22;8983;53.156;17.960;2022-11-20T12:19:34;-0.30;99.90
17726;DHT22;8983;53.156;17.960;2022-11-20T12:22:06;-0.30;99.90
17726;DHT22;8983;53.156;17.960;2022-11-20T12:24:47;-0.30;99.90
17726;DHT22;8983;53.156;17.960;2022-11-20T12:27:39;-0.30;99.90
17726;DHT22;8983;53.156;17.960;2022-11-20T12:30:14;-0.30;99.90
17726;DHT22;8983;53.156;17.960;2022-11-20T12:33:04;-0.30;99.90
17726;DHT22;8983;53.156;17.960;2022-11-20T12:36:01;-0.30;99.90
17726;DHT22;8983;53.156;17.960;2022-11-20T12:38:47;-0.30;99.90
17726;DHT22;8983;53.156;17.960;2022-11-20T12:41:29;-0.30;99.90
17726;DHT22;8983;53.156;17.960;2022-11-20T12:44:36;-0.30;99.90
17726;DHT22;8983;53.156;17.960;2022-11-20T12:47:32;-0.20;99.90
17726;DHT22;8983;53.156;17.960;2022-11-20T12:50:08;-0.20;99.90
17726;DHT22;8983;53.156;17.960;2022-11-20T12:52:45;-0.20;99.90
17726;DHT22;8983;53.156;17.960;2022-11-20T12:55:36;-0.20;99.90
17726;DHT22;8983;53.156;17.960;2022-11-20T12:58:11;-0.20;99.90
17726;DHT22;8983;53.156;17.960;2022-11-20T13:00:47;-0.20;99.90
17726;DHT22;8983;53.156;17.960;2022-11-20T13:03:41;-0.20;99.90
17726;DHT22;8983;53.156;17.960;2022-11-20T13:06:14;-0.20;99.90
17726;DHT22;8983;53.156;17.960;2022-11-20T13:08:47;-0.20;99.90
17726;DHT22;8983;53.156;17.960;2022-11-20T13:11:19;-0.20;99.90
17726;DHT22;8983;53.156;17.960;2022-11-20T13:14:04;-0.20;99.90
17726;DHT22;8983;53.156;17.960;2022-11-20T13:16:38;-0.10;99.90
17726;DHT22;8983;53.156;17.960;2022-11-20T13:19:12;-0.20;99.90
17726;DHT22;8983;53.156;17.960;2022-11-20T13:21:42;-0.20;99.90
17726;DHT22;8983;53.156;17.960;2022-11-20T13:24:22;-0.20;99.90
17726;DHT22;8983;53.156;17.960;2022-11-20T13:27:00;-0.20;99.90
17726;DHT22;8983;53.156;17.960;2022-11-20T13:29:29;-0.10;99.90
17726;DHT22;8983;53.156;17.960;2022-11-20T13:32:05;-0.10;99.90
17726;DHT22;8983;53.156;17.960;2022-11-20T13:34:36;-0.10;99.90
17726;DHT22;8983;53.156;17.960;2022-11-20T13:37:04;-0.10;99.90
17726;DHT22;8983;53.156;17.960;2022-11-20T13:39:33;-0.10;99.90
17726;DHT22;8983;53.156;17.960;2022-11-20T13:42:03;-0.10;99.90
17726;DHT22;8983;53.156;17.960;2022-11-20T13:44:50;-0.10;99.90
17726;DHT22;8983;53.156;17.960;2022-11-20T13:47:21;-0.10;99.90
17726;DHT22;8983;53.156;17.960;2022-11-20T13:49:51;-0.20;99.90
17726;DHT22;8983;53.156;17.960;2022-11-20T13:52:36;-0.20;99.90
17726;DHT22;8983;53.156;17.960;2022-11-20T13:55:16;-0.10;99.90
17726;DHT22;8983;53.156;17.960;2022-11-20T13:57:56;-0.20;99.90
17726;DHT22;8983;53.156;17.960;2022-11-20T14:00:26;-0.20;99.90
17726;DHT22;8983;53.156;17.960;2022-11-20T14:03:09;-0.20;99.90
17726;DHT22;8983;53.156;17.960;2022-11-20T14:05:49;-0.20;99.90
17726;DHT22;8983;53.156;17.960;2022-11-20T14:08:25;-0.20;99.90
17726;DHT22;8983;53.156;17.960;2022-11-20T14:11:14;-0.20;99.90
17726;DHT22;8983;53.156;17.960;2022-11-20T14:13:57;-0.20;99.90
17726;DHT22;8983;53.156;17.960;2022-11-20T14:16:27;-0.20;99.90
17726;DHT22;8983;53.156;17.960;2022-11-20T14:18:56;-0.20;99.90
17726;DHT22;8983;53.156;17.960;2022-11-20T14:21:28;-0.20;99.90
17726;DHT22;8983;53.156;17.960;2022-11-20T14:24:06;-0.20;99.90
17726;DHT22;8983;53.156;17.960;2022-11-20T14:26:34;-0.20;99.90
17726;DHT22;8983;53.156;17.960;2022-11-20T14:29:03;-0.20;99.90
17726;DHT22;8983;53.156;17.960;2022-11-20T14:31:31;-0.20;99.90
17726;DHT22;8983;53.156;17.960;2022-11-20T14:34:02;-0.20;99.90
17726;DHT22;8983;53.156;17.960;2022-11-20T14:36:31;-0.20;99.90
17726;DHT22;8983;53.156;17.960;2022-11-20T14:38:59;-0.20;99.90
17726;DHT22;8983;53.156;17.960;2022-11-20T14:41:27;-0.20;99.90
17726;DHT22;8983;53.156;17.960;2022-11-20T14:43:59;-0.20;99.90
17726;DHT22;8983;53.156;17.960;2022-11-20T14:46:31;-0.20;99.90
17726;DHT22;8983;53.156;17.960;2022-11-20T14:49:01;-0.20;99.90
17726;DHT22;8983;53.156;17.960;2022-11-20T14:51:34;-0.20;99.90
17726;DHT22;8983;53.156;17.960;2022-11-20T14:54:09;-0.20;99.90
17726;DHT22;8983;53.156;17.960;2022-11-20T14:56:37;-0.20;99.90
17726;DHT22;8983;53.156;17.960;2022-11-20T14:59:06;-0.20;99.90
17726;DHT22;8983;53.156;17.960;2022-11-20T15:01:35;-0.20;99.90
17726;DHT22;8983;53.156;17.960;2022-11-20T15:04:06;-0.20;99.90
17726;DHT22;8983;53.156;17.960;2022-11-20T15:06:37;-0.20;99.90
17726;DHT22;8983;53.156;17.960;2022-11-20T15:09:16;-0.20;99.90
17726;DHT22;8983;53.156;17.960;2022-11-20T15:11:53;-0.20;99.90
17726;DHT22;8983;53.156;17.960;2022-11-20T15:14:22;-0.20;99.90
17726;DHT22;8983;53.156;17.960;2022-11-20T15:16:52;-0.20;99.90
17726;DHT22;8983;53.156;17.960;2022-11-20T15:19:22;-0.20;99.90
17726;DHT22;8983;53.156;17.960;2022-11-20T15:21:52;-0.30;99.90
17726;DHT22;8983;53.156;17.960;2022-11-20T15:24:20;-0.30;99.90
17726;DHT22;8983;53.156;17.960;2022-11-20T15:26:48;-0.30;99.90
17726;DHT22;8983;53.156;17.960;2022-11-20T15:29:16;-0.30;99.90
17726;DHT22;8983;53.156;17.960;2022-11-20T15:31:45;-0.30;99.90
17726;DHT22;8983;53.156;17.960;2022-11-20T15:34:14;-0.30;99.90
17726;DHT22;8983;53.156;17.960;2022-11-20T15:36:43;-0.30;99.90
17726;DHT22;8983;53.156;17.960;2022-11-20T15:39:12;-0.30;99.90
17726;DHT22;8983;53.156;17.960;2022-11-20T15:41:40;-0.30;99.90
17726;DHT22;8983;53.156;17.960;2022-11-20T15:44:08;-0.30;99.90
17726;DHT22;8983;53.156;17.960;2022-11-20T15:46:38;-0.30;99.90
17726;DHT22;8983;53.156;17.960;2022-11-20T15:49:11;-0.30;99.90
17726;DHT22;8983;53.156;17.960;2022-11-20T15:51:41;-0.30;99.90
17726;DHT22;8983;53.156;17.960;2022-11-20T15:54:13;-0.30;99.90
17726;DHT22;8983;53.156;17.960;2022-11-20T15:56:42;-0.30;99.90